Time;durP1;ratioP1;P1;durP2;ratioP2;P2;SDS_P1;SDS_P2;PMS_P1;PMS_P2;Temp;Humidity;BMP_temperature;BMP_pressure;BME280_temperature;BME280_humidity;BME280_pressure;Samples;Min_cycle;Max_cycle;Signal;HPM_P1;HPM_P2
2022/01/30 00:02:41;;;;;;;;;;;21.30;42.70;;;;;;6309898;28;19923;-41
2022/01/30 00:05:43;;;;;;;;;;;20.90;42.50;;;;;;6306977;27;19928;-41
2022/01/30 00:08:44;;;;;;;;;;;21.50;42.70;;;;;;6308149;28;19932;-40
2022/01/30 00:11:51;;;;;;;;;;;20.90;42.40;;;;;;6313113;28;20069;-40
2022/01/30 00:14:54;;;;;;;;;;;20.90;42.40;;;;;;6311867;28;19959;-41
2022/01/30 00:18:08;;;;;;;;;;;21.40;42.80;;;;;;6309194;28;19939;-41
2022/01/30 00:21:15;;;;;;;;;;;20.90;42.60;;;;;;6303846;28;19997;-41
2022/01/30 00:24:23;;;;;;;;;;;21.40;42.90;;;;;;6308303;28;20568;-41
2022/01/30 00:27:29;;;;;;;;;;;21.00;42.70;;;;;;6310861;28;19927;-40
2022/01/30 00:30:34;;;;;;;;;;;21.10;42.60;;;;;;6313728;28;20848;-41
2022/01/30 00:33:36;;;;;;;;;;;21.00;42.60;;;;;;6310543;28;19932;-40
2022/01/30 00:36:38;;;;;;;;;;;21.30;42.80;;;;;;6306759;28;20205;-41
2022/01/30 00:39:40;;;;;;;;;;;21.70;43.10;;;;;;6317117;28;19933;-40
2022/01/30 00:42:43;;;;;;;;;;;21.00;42.80;;;;;;6309061;28;21063;-41
2022/01/30 00:45:45;;;;;;;;;;;21.10;42.80;;;;;;6318505;28;19958;-42
2022/01/30 00:48:47;;;;;;;;;;;21.10;42.80;;;;;;6314917;28;19936;-41
2022/01/30 00:51:49;;;;;;;;;;;21.00;42.60;;;;;;6301574;28;20005;-41
2022/01/30 00:54:51;;;;;;;;;;;20.90;42.70;;;;;;6304282;28;20054;-41
2022/01/30 00:57:53;;;;;;;;;;;21.40;42.70;;;;;;6309055;28;19927;-41
2022/01/30 01:00:54;;;;;;;;;;;21.00;42.60;;;;;;6296191;28;20688;-41
2022/01/30 01:03:56;;;;;;;;;;;20.90;42.70;;;;;;6318687;28;19970;-40
2022/01/30 01:06:57;;;;;;;;;;;21.40;42.70;;;;;;6315810;28;20633;-41
2022/01/30 01:10:06;;;;;;;;;;;21.30;42.80;;;;;;6322558;28;19932;-41
2022/01/30 01:13:22;;;;;;;;;;;21.10;42.80;;;;;;6317259;28;20673;-41
2022/01/30 01:26:12;;;;;;;;;;;20.80;42.70;;;;;;6322400;28;20062;-41
2022/01/30 01:29:15;;;;;;;;;;;20.90;42.90;;;;;;6325921;28;19928;-41
2022/01/30 01:32:16;;;;;;;;;;;20.80;42.90;;;;;;6324698;28;19928;-41
2022/01/30 01:35:18;;;;;;;;;;;20.50;42.80;;;;;;6324511;28;20125;-40
2022/01/30 01:38:20;;;;;;;;;;;20.80;42.80;;;;;;6306038;28;19928;-41
2022/01/30 01:41:24;;;;;;;;;;;21.40;43.20;;;;;;6315560;28;19993;-41
2022/01/30 01:44:32;;;;;;;;;;;20.90;42.90;;;;;;6321929;28;20105;-40
2022/01/30 01:47:34;;;;;;;;;;;20.60;42.80;;;;;;6307561;28;19934;-40
2022/01/30 01:50:38;;;;;;;;;;;20.90;42.90;;;;;;6320332;28;19931;-41
2022/01/30 01:53:43;;;;;;;;;;;20.80;42.70;;;;;;6304162;28;20047;-43
2022/01/30 01:56:45;;;;;;;;;;;21.00;42.90;;;;;;6310707;28;19938;-41
2022/01/30 02:00:05;;;;;;;;;;;20.80;42.90;;;;;;6313891;28;20920;-41
2022/01/30 02:03:22;;;;;;;;;;;20.90;43.00;;;;;;6306303;28;19936;-41
2022/01/30 02:06:26;;;;;;;;;;;21.00;43.00;;;;;;6310354;28;19940;-41
2022/01/30 02:09:32;;;;;;;;;;;21.20;43.00;;;;;;6312996;28;20085;-40
2022/01/30 02:12:43;;;;;;;;;;;21.00;43.00;;;;;;6312591;28;20178;-42
2022/01/30 02:25:40;;;;;;;;;;;20.90;43.00;;;;;;6311766;28;19996;-40
2022/01/30 02:28:42;;;;;;;;;;;21.20;43.20;;;;;;6314510;27;19927;-40
2022/01/30 02:31:43;;;;;;;;;;;20.90;43.10;;;;;;6311138;28;20258;-40
2022/01/30 02:34:45;;;;;;;;;;;21.10;43.20;;;;;;6311731;28;19935;-41
2022/01/30 02:37:51;;;;;;;;;;;20.90;43.00;;;;;;6308063;28;20400;-41
2022/01/30 02:40:55;;;;;;;;;;;20.80;43.00;;;;;;6314491;28;19943;-41
2022/01/30 02:44:09;;;;;;;;;;;21.40;43.30;;;;;;6292129;28;20401;-40
2022/01/30 02:47:22;;;;;;;;;;;21.10;43.10;;;;;;6309116;28;20005;-41
2022/01/30 02:50:36;;;;;;;;;;;20.80;43.00;;;;;;6309840;28;20281;-40
2022/01/30 02:53:42;;;;;;;;;;;20.70;42.90;;;;;;6290864;28;19931;-40
2022/01/30 02:56:43;;;;;;;;;;;21.00;43.20;;;;;;6306200;28;19927;-40
2022/01/30 02:59:45;;;;;;;;;;;21.10;43.20;;;;;;6291459;28;19939;-41
2022/01/30 03:02:47;;;;;;;;;;;20.70;43.10;;;;;;6313827;28;20004;-40
2022/01/30 03:05:51;;;;;;;;;;;20.70;43.00;;;;;;6309354;28;20318;-41
2022/01/30 03:08:53;;;;;;;;;;;20.60;43.10;;;;;;6316648;28;19935;-40
2022/01/30 03:11:54;;;;;;;;;;;21.00;43.20;;;;;;6310911;28;20033;-41
2022/01/30 03:14:56;;;;;;;;;;;20.70;43.00;;;;;;6313925;28;19959;-41
2022/01/30 03:17:57;;;;;;;;;;;21.00;43.30;;;;;;6305023;28;20525;-40
2022/01/30 03:20:59;;;;;;;;;;;20.70;43.10;;;;;;6310913;28;20484;-40
2022/01/30 03:24:00;;;;;;;;;;;21.10;43.30;;;;;;6307645;28;20224;-41
2022/01/30 03:27:02;;;;;;;;;;;21.00;43.30;;;;;;6309232;28;19928;-41
2022/01/30 03:30:18;;;;;;;;;;;21.30;43.50;;;;;;6306309;28;20391;-40
2022/01/30 03:33:36;;;;;;;;;;;20.70;43.10;;;;;;6306043;28;20301;-42
2022/01/30 03:36:37;;;;;;;;;;;20.70;43.10;;;;;;6309567;28;19931;-40
2022/01/30 03:39:39;;;;;;;;;;;20.70;43.10;;;;;;6310190;27;20359;-40
2022/01/30 03:42:41;;;;;;;;;;;21.20;43.40;;;;;;6308623;28;20160;-41
2022/01/30 03:45:46;;;;;;;;;;;21.30;43.60;;;;;;6303252;28;19935;-41
2022/01/30 03:48:48;;;;;;;;;;;20.80;43.10;;;;;;6293113;28;19928;-40
2022/01/30 03:51:58;;;;;;;;;;;21.20;43.40;;;;;;6309668;28;19935;-40
2022/01/30 03:55:05;;;;;;;;;;;20.90;43.40;;;;;;6309570;28;19931;-40
2022/01/30 03:58:07;;;;;;;;;;;21.10;43.10;;;;;;6308537;28;20326;-41
2022/01/30 04:01:10;;;;;;;;;;;21.10;43.30;;;;;;6291971;28;19932;-41
2022/01/30 04:04:11;;;;;;;;;;;20.70;43.30;;;;;;6310282;28;20041;-41
2022/01/30 04:07:13;;;;;;;;;;;20.90;43.40;;;;;;6314808;28;20276;-40
2022/01/30 04:10:35;;;;;;;;;;;20.60;43.10;;;;;;6293780;28;20324;-41
2022/01/30 04:13:54;;;;;;;;;;;20.80;43.20;;;;;;6308579;28;19982;-41
2022/01/30 04:17:09;;;;;;;;;;;21.20;43.40;;;;;;6311585;28;20069;-42
2022/01/30 04:20:24;;;;;;;;;;;21.20;43.50;;;;;;6309518;28;20204;-40
2022/01/30 04:23:45;;;;;;;;;;;21.10;43.50;;;;;;6292302;28;20043;-42
2022/01/30 04:27:02;;;;;;;;;;;21.10;43.60;;;;;;6311458;28;20373;-40
2022/01/30 04:30:15;;;;;;;;;;;20.70;43.30;;;;;;6310738;28;20020;-40
2022/01/30 04:33:34;;;;;;;;;;;20.80;43.40;;;;;;6303484;28;20101;-40
2022/01/30 04:37:01;;;;;;;;;;;20.70;43.30;;;;;;6310657;28;20520;-41
2022/01/30 04:40:38;;;;;;;;;;;21.00;43.40;;;;;;6314033;28;20125;-40
2022/01/30 04:57:54;;;;;;;;;;;20.80;43.50;;;;;;6315014;28;20850;-40
2022/01/30 05:01:20;;;;;;;;;;;20.90;43.50;;;;;;6305764;28;20609;-41
2022/01/30 05:04:45;;;;;;;;;;;20.60;43.40;;;;;;6301087;28;20412;-41
2022/01/30 05:08:05;;;;;;;;;;;21.10;43.70;;;;;;6317141;28;19931;-41
2022/01/30 05:11:24;;;;;;;;;;;20.90;43.50;;;;;;6318119;28;20852;-41
2022/01/30 05:14:45;;;;;;;;;;;20.80;43.60;;;;;;6314831;28;20366;-41
2022/01/30 05:18:05;;;;;;;;;;;20.60;43.50;;;;;;6308585;28;20224;-40
2022/01/30 05:21:27;;;;;;;;;;;20.90;43.50;;;;;;6300969;28;20250;-42
2022/01/30 05:24:33;;;;;;;;;;;21.20;43.60;;;;;;6290174;27;20576;-41
2022/01/30 05:27:41;;;;;;;;;;;20.80;43.60;;;;;;6305936;28;20166;-40
2022/01/30 05:30:53;;;;;;;;;;;21.00;43.70;;;;;;6309759;28;19932;-41
2022/01/30 05:34:15;;;;;;;;;;;20.60;43.50;;;;;;6306005;28;20049;-41
2022/01/30 05:37:39;;;;;;;;;;;20.60;43.50;;;;;;6308696;28;19982;-40
2022/01/30 05:40:54;;;;;;;;;;;20.90;43.60;;;;;;6296711;28;19978;-41
2022/01/30 05:44:19;;;;;;;;;;;20.80;43.60;;;;;;6307595;28;19963;-40
2022/01/30 05:47:41;;;;;;;;;;;20.70;43.60;;;;;;6311747;28;19928;-41
2022/01/30 05:50:54;;;;;;;;;;;20.70;43.60;;;;;;6303904;28;20486;-41
2022/01/30 05:54:16;;;;;;;;;;;21.00;43.90;;;;;;6308817;28;20004;-41
2022/01/30 05:57:17;;;;;;;;;;;21.30;44.10;;;;;;6307928;28;20360;-41
2022/01/30 06:00:19;;;;;;;;;;;20.90;43.80;;;;;;6307180;28;19927;-40
2022/01/30 06:03:34;;;;;;;;;;;20.70;43.70;;;;;;6290296;28;19928;-40
2022/01/30 06:06:36;;;;;;;;;;;20.50;43.70;;;;;;6310366;28;20369;-41
2022/01/30 06:09:38;;;;;;;;;;;21.00;43.90;;;;;;6309314;28;20402;-41
2022/01/30 06:12:39;;;;;;;;;;;20.70;43.70;;;;;;6308952;28;19939;-40
2022/01/30 06:15:41;;;;;;;;;;;20.70;43.80;;;;;;6309597;28;20658;-40
2022/01/30 06:18:51;;;;;;;;;;;20.70;43.70;;;;;;6305754;28;20154;-41
2022/01/30 06:22:05;;;;;;;;;;;20.60;43.90;;;;;;6299634;28;19985;-40
2022/01/30 06:25:26;;;;;;;;;;;21.00;44.00;;;;;;6308065;28;19933;-40
2022/01/30 06:28:44;;;;;;;;;;;21.20;44.00;;;;;;6308290;28;19935;-40
2022/01/30 06:31:53;;;;;;;;;;;20.80;43.90;;;;;;6307810;28;19932;-40
2022/01/30 06:35:14;;;;;;;;;;;20.40;43.60;;;;;;6291284;28;20114;-41
2022/01/30 06:38:23;;;;;;;;;;;20.40;43.70;;;;;;6305194;28;20381;-41
2022/01/30 06:41:34;;;;;;;;;;;20.60;43.70;;;;;;6308283;28;20164;-41
2022/01/30 06:44:54;;;;;;;;;;;21.00;44.00;;;;;;6295955;28;20013;-43
2022/01/30 06:48:16;;;;;;;;;;;20.30;43.60;;;;;;6302819;28;20038;-40
2022/01/30 06:51:37;;;;;;;;;;;20.40;43.50;;;;;;6306424;28;21018;-41
2022/01/30 06:54:59;;;;;;;;;;;20.60;43.80;;;;;;6299348;28;20281;-41
2022/01/30 06:58:15;;;;;;;;;;;20.80;43.90;;;;;;6292908;28;20218;-41
2022/01/30 07:01:34;;;;;;;;;;;21.00;43.60;;;;;;6290231;28;20615;-41
2022/01/30 07:04:56;;;;;;;;;;;20.70;44.00;;;;;;6307028;28;20451;-40
2022/01/30 07:08:05;;;;;;;;;;;20.60;43.90;;;;;;6304590;28;20019;-40
2022/01/30 07:11:07;;;;;;;;;;;20.90;44.00;;;;;;6309658;28;19963;-41
2022/01/30 07:14:09;;;;;;;;;;;20.60;43.80;;;;;;6302030;28;20083;-41
2022/01/30 07:17:10;;;;;;;;;;;20.80;44.00;;;;;;6307709;28;20095;-41
2022/01/30 07:20:11;;;;;;;;;;;20.50;44.00;;;;;;6306240;28;20034;-41
2022/01/30 07:23:13;;;;;;;;;;;21.00;44.70;;;;;;6308706;28;20042;-42
2022/01/30 07:26:15;;;;;;;;;;;20.50;43.90;;;;;;6308860;27;20468;-41
2022/01/30 07:29:16;;;;;;;;;;;20.50;43.90;;;;;;6307314;28;20026;-41
2022/01/30 07:32:17;;;;;;;;;;;20.60;43.70;;;;;;6308488;28;20307;-41
2022/01/30 07:35:19;;;;;;;;;;;20.60;43.90;;;;;;6304883;28;20058;-40
2022/01/30 07:38:27;;;;;;;;;;;20.90;44.20;;;;;;6305561;28;19998;-40
2022/01/30 07:41:29;;;;;;;;;;;20.50;43.90;;;;;;6308655;28;20848;-41
2022/01/30 07:44:30;;;;;;;;;;;20.40;43.80;;;;;;6300736;28;19938;-41
2022/01/30 07:47:32;;;;;;;;;;;20.90;44.10;;;;;;6285853;28;19932;-40
2022/01/30 07:50:33;;;;;;;;;;;20.40;44.50;;;;;;6280341;28;20300;-41
2022/01/30 07:53:35;;;;;;;;;;;20.40;43.90;;;;;;6295747;28;20007;-40
2022/01/30 07:56:36;;;;;;;;;;;20.40;44.00;;;;;;6301050;28;19935;-41
2022/01/30 07:59:43;;;;;;;;;;;20.50;44.00;;;;;;6298021;28;20043;-41
2022/01/30 08:02:44;;;;;;;;;;;20.50;43.90;;;;;;6291217;28;20074;-41
2022/01/30 08:05:46;;;;;;;;;;;21.00;44.20;;;;;;6304766;28;20064;-41
2022/01/30 08:08:47;;;;;;;;;;;20.50;44.10;;;;;;6299863;28;20166;-40
2022/01/30 08:11:49;;;;;;;;;;;20.80;44.10;;;;;;6288647;28;20405;-40
2022/01/30 08:14:51;;;;;;;;;;;20.50;43.90;;;;;;6300422;28;20906;-41
2022/01/30 08:17:52;;;;;;;;;;;20.40;43.90;;;;;;6306686;28;20016;-41
2022/01/30 08:20:54;;;;;;;;;;;20.40;44.00;;;;;;6286480;28;19928;-40
2022/01/30 08:23:55;;;;;;;;;;;20.80;44.20;;;;;;6306845;28;19927;-41
2022/01/30 08:26:58;;;;;;;;;;;20.50;44.00;;;;;;6300782;28;19928;-41
2022/01/30 08:30:00;;;;;;;;;;;20.60;44.10;;;;;;6304373;28;20686;-40
2022/01/30 08:33:02;;;;;;;;;;;21.30;44.40;;;;;;6308869;28;19932;-40
2022/01/30 08:36:05;;;;;;;;;;;21.10;44.30;;;;;;6308595;28;19932;-41
2022/01/30 08:39:06;;;;;;;;;;;20.70;44.00;;;;;;6314707;28;20030;-41
2022/01/30 08:42:08;;;;;;;;;;;20.80;44.10;;;;;;6314115;28;19927;-40
2022/01/30 08:45:12;;;;;;;;;;;20.40;43.90;;;;;;6301163;28;19927;-40
2022/01/30 08:48:14;;;;;;;;;;;20.80;44.00;;;;;;6309364;28;19927;-41
2022/01/30 08:51:15;;;;;;;;;;;20.50;44.10;;;;;;6310795;28;20009;-41
2022/01/30 08:54:18;;;;;;;;;;;20.50;43.90;;;;;;6292306;28;19928;-40
2022/01/30 08:57:19;;;;;;;;;;;20.40;43.90;;;;;;6285441;28;20457;-40
2022/01/30 09:00:21;;;;;;;;;;;20.50;44.00;;;;;;6305327;28;20468;-41
2022/01/30 09:03:22;;;;;;;;;;;21.00;44.20;;;;;;6296423;28;19978;-40
2022/01/30 09:06:23;;;;;;;;;;;20.90;44.20;;;;;;6267103;28;21329;-41
2022/01/30 09:09:25;;;;;;;;;;;20.70;44.00;;;;;;6279435;28;20459;-41
2022/01/30 09:12:27;;;;;;;;;;;20.60;44.00;;;;;;6291788;28;20420;-41
2022/01/30 09:15:29;;;;;;;;;;;20.50;43.80;;;;;;6286738;28;19940;-41
2022/01/30 09:18:30;;;;;;;;;;;20.90;44.10;;;;;;6283837;28;20358;-40
2022/01/30 09:21:32;;;;;;;;;;;20.60;43.70;;;;;;6278120;28;20545;-40
2022/01/30 09:24:33;;;;;;;;;;;20.60;43.60;;;;;;6284517;28;19928;-42
2022/01/30 09:27:35;;;;;;;;;;;20.80;43.60;;;;;;6258050;28;19932;-41
2022/01/30 09:30:37;;;;;;;;;;;21.00;43.80;;;;;;6276265;28;20469;-40
2022/01/30 09:33:39;;;;;;;;;;;21.40;43.90;;;;;;6288546;28;20013;-41
2022/01/30 09:36:40;;;;;;;;;;;21.00;43.50;;;;;;6284640;28;20030;-40
2022/01/30 09:39:42;;;;;;;;;;;20.50;43.40;;;;;;6290900;28;19933;-41
2022/01/30 09:42:45;;;;;;;;;;;21.10;43.70;;;;;;6280988;28;20562;-41
2022/01/30 09:45:47;;;;;;;;;;;20.80;43.20;;;;;;6285316;28;19938;-40
2022/01/30 09:48:49;;;;;;;;;;;21.00;43.30;;;;;;6277877;28;19938;-41
2022/01/30 09:51:52;;;;;;;;;;;21.10;43.20;;;;;;6281703;28;20021;-41
2022/01/30 09:54:53;;;;;;;;;;;21.40;43.20;;;;;;6272830;28;20418;-41
2022/01/30 09:57:55;;;;;;;;;;;20.80;43.00;;;;;;6300934;28;20767;-41
2022/01/30 10:00:57;;;;;;;;;;;20.80;42.90;;;;;;6288768;28;20050;-41
2022/01/30 10:03:58;;;;;;;;;;;21.40;42.80;;;;;;6289580;28;19938;-41
2022/01/30 10:07:04;;;;;;;;;;;21.40;43.10;;;;;;6284980;28;20359;-41
2022/01/30 10:10:06;;;;;;;;;;;21.80;43.20;;;;;;6287939;28;20727;-41
2022/01/30 10:13:09;;;;;;;;;;;21.40;42.90;;;;;;6279973;28;19939;-40
2022/01/30 10:16:10;;;;;;;;;;;21.20;42.90;;;;;;6290306;28;19931;-41
2022/01/30 10:19:17;;;;;;;;;;;21.20;42.80;;;;;;6287147;28;19932;-41
2022/01/30 10:22:18;;;;;;;;;;;21.10;42.70;;;;;;6287428;28;19927;-40
2022/01/30 10:25:21;;;;;;;;;;;21.60;43.10;;;;;;6287072;28;20480;-41
2022/01/30 10:28:27;;;;;;;;;;;21.30;42.60;;;;;;6277738;28;20375;-41
2022/01/30 10:31:29;;;;;;;;;;;21.30;42.50;;;;;;6283635;28;20347;-41
2022/01/30 10:34:30;;;;;;;;;;;21.80;42.90;;;;;;6298731;28;20359;-41
2022/01/30 10:37:32;;;;;;;;;;;21.50;42.60;;;;;;6269585;28;20506;-40
2022/01/30 10:40:38;;;;;;;;;;;21.20;42.40;;;;;;6284269;28;20553;-41
2022/01/30 10:43:48;;;;;;;;;;;21.60;42.80;;;;;;6284762;28;20422;-41
2022/01/30 10:46:51;;;;;;;;;;;21.30;42.30;;;;;;6268185;28;20283;-41
2022/01/30 10:49:53;;;;;;;;;;;21.50;42.50;;;;;;6284649;28;20278;-41
2022/01/30 10:52:55;;;;;;;;;;;21.40;42.60;;;;;;6280637;28;20510;-41
2022/01/30 10:55:58;;;;;;;;;;;21.30;42.30;;;;;;6283934;28;19978;-40
2022/01/30 10:59:08;;;;;;;;;;;21.30;42.40;;;;;;6290549;28;20172;-41
2022/01/30 11:02:11;;;;;;;;;;;21.60;42.30;;;;;;6297003;28;20336;-41
2022/01/30 11:05:13;;;;;;;;;;;21.80;42.40;;;;;;6283201;28;19931;-41
2022/01/30 11:08:21;;;;;;;;;;;21.50;42.40;;;;;;6303557;28;20084;-40
2022/01/30 11:11:30;;;;;;;;;;;21.30;42.10;;;;;;6291404;28;19936;-41
2022/01/30 11:14:39;;;;;;;;;;;21.80;42.40;;;;;;6304594;28;20576;-41
2022/01/30 11:17:40;;;;;;;;;;;21.40;42.20;;;;;;6261128;28;19979;-40
2022/01/30 11:20:43;;;;;;;;;;;21.40;42.20;;;;;;6290666;28;19932;-40
2022/01/30 11:23:45;;;;;;;;;;;21.50;42.10;;;;;;6296069;28;20038;-41
2022/01/30 11:26:47;;;;;;;;;;;22.00;42.30;;;;;;6307757;27;20520;-41
2022/01/30 11:29:50;;;;;;;;;;;21.60;42.00;;;;;;6304053;28;20039;-41
2022/01/30 11:32:52;;;;;;;;;;;21.50;42.10;;;;;;6288737;28;20316;-40
2022/01/30 11:35:53;;;;;;;;;;;22.00;42.20;;;;;;6301706;28;19985;-41
2022/01/30 11:38:55;;;;;;;;;;;22.00;42.20;;;;;;6304980;28;19933;-41
2022/01/30 11:42:11;;;;;;;;;;;21.50;42.00;;;;;;6304410;28;20410;-41
2022/01/30 11:45:16;;;;;;;;;;;21.90;42.10;;;;;;6286212;28;19938;-41
2022/01/30 11:48:35;;;;;;;;;;;21.50;41.80;;;;;;6297850;28;19984;-41
2022/01/30 11:51:47;;;;;;;;;;;21.60;41.90;;;;;;6292287;28;19932;-41
2022/01/30 11:54:50;;;;;;;;;;;21.60;41.80;;;;;;6299166;28;19983;-41
2022/01/30 11:57:51;;;;;;;;;;;21.60;41.80;;;;;;6290118;28;19927;-41
2022/01/30 12:00:53;;;;;;;;;;;21.90;42.10;;;;;;6298221;28;19928;-41
2022/01/30 12:03:59;;;;;;;;;;;22.00;42.10;;;;;;6299544;28;19970;-41
2022/01/30 12:07:00;;;;;;;;;;;22.10;42.00;;;;;;6299704;28;20304;-41
2022/01/30 12:10:14;;;;;;;;;;;21.90;42.00;;;;;;6305998;28;20303;-41
2022/01/30 12:13:16;;;;;;;;;;;21.80;41.70;;;;;;6304790;28;20416;-41
2022/01/30 12:16:32;;;;;;;;;;;21.80;41.80;;;;;;6288382;28;20682;-40
2022/01/30 12:19:45;;;;;;;;;;;21.80;41.70;;;;;;6287756;28;20345;-41
2022/01/30 12:22:47;;;;;;;;;;;21.80;41.70;;;;;;6307591;28;20055;-40
2022/01/30 12:25:52;;;;;;;;;;;21.90;41.80;;;;;;6306220;28;20054;-41
2022/01/30 12:28:54;;;;;;;;;;;22.00;41.70;;;;;;6305192;28;19927;-40
2022/01/30 12:31:56;;;;;;;;;;;22.10;41.70;;;;;;6301308;28;20398;-41
2022/01/30 12:35:02;;;;;;;;;;;22.10;41.80;;;;;;6301911;28;20247;-41
2022/01/30 12:38:04;;;;;;;;;;;22.40;41.20;;;;;;6296882;28;19931;-41
2022/01/30 12:41:14;;;;;;;;;;;21.90;41.60;;;;;;6300511;28;20058;-41
2022/01/30 12:44:19;;;;;;;;;;;23.00;42.10;;;;;;6303975;28;20066;-41
2022/01/30 12:47:21;;;;;;;;;;;22.00;41.50;;;;;;6295448;28;20378;-40
2022/01/30 12:50:25;;;;;;;;;;;22.00;41.60;;;;;;6300855;28;20037;-41
2022/01/30 12:53:27;;;;;;;;;;;22.40;41.80;;;;;;6306315;28;20204;-41
2022/01/30 12:56:29;;;;;;;;;;;22.00;41.60;;;;;;6301432;28;20024;-41
2022/01/30 12:59:30;;;;;;;;;;;22.00;41.40;;;;;;6279936;28;19932;-41
2022/01/30 13:02:34;;;;;;;;;;;22.20;41.60;;;;;;6296952;28;20208;-41
2022/01/30 13:05:42;;;;;;;;;;;22.20;41.60;;;;;;6303423;28;19928;-40
2022/01/30 13:08:46;;;;;;;;;;;22.20;41.30;;;;;;6285316;28;20458;-41
2022/01/30 13:11:48;;;;;;;;;;;22.40;41.50;;;;;;6298143;28;20194;-40
2022/01/30 13:14:49;;;;;;;;;;;22.10;41.40;;;;;;6301700;28;19966;-41
2022/01/30 13:17:51;;;;;;;;;;;22.50;41.70;;;;;;6301463;28;20500;-40
2022/01/30 13:20:52;;;;;;;;;;;22.10;41.30;;;;;;6299133;28;20318;-40
2022/01/30 13:23:55;;;;;;;;;;;22.10;41.40;;;;;;6304716;28;20406;-41
2022/01/30 13:26:56;;;;;;;;;;;22.40;41.50;;;;;;6307243;28;19973;-41
2022/01/30 13:29:58;;;;;;;;;;;22.00;41.20;;;;;;6304557;28;19934;-41
2022/01/30 13:32:59;;;;;;;;;;;22.10;41.30;;;;;;6304366;28;20906;-41
2022/01/30 13:36:01;;;;;;;;;;;22.10;41.30;;;;;;6299443;28;19958;-43
2022/01/30 13:39:07;;;;;;;;;;;22.20;41.20;;;;;;6300817;28;19935;-41
2022/01/30 13:42:25;;;;;;;;;;;22.50;41.40;;;;;;6298187;28;20198;-41
2022/01/30 13:48:44;;;;;;;;;;;22.50;41.30;;;;;;6298861;28;19953;-41
2022/01/30 13:51:45;;;;;;;;;;;22.10;41.20;;;;;;6300490;28;20678;-40
2022/01/30 13:55:02;;;;;;;;;;;22.20;41.20;;;;;;6308441;28;20198;-41
2022/01/30 13:58:04;;;;;;;;;;;22.10;41.00;;;;;;6287025;28;20022;-41
2022/01/30 14:01:07;;;;;;;;;;;22.50;41.30;;;;;;6268651;28;20168;-40
2022/01/30 14:04:11;;;;;;;;;;;22.20;41.10;;;;;;6297242;28;19932;-40
2022/01/30 14:07:23;;;;;;;;;;;22.30;41.10;;;;;;6299304;28;19971;-41
2022/01/30 14:10:28;;;;;;;;;;;22.60;41.20;;;;;;6304876;28;20033;-40
2022/01/30 14:13:37;;;;;;;;;;;22.20;40.90;;;;;;6301068;28;20168;-41
2022/01/30 14:16:39;;;;;;;;;;;22.50;41.20;;;;;;6300156;28;19934;-41
2022/01/30 14:19:48;;;;;;;;;;;22.70;41.20;;;;;;6304035;28;20037;-41
2022/01/30 14:23:03;;;;;;;;;;;22.30;41.00;;;;;;6305037;28;20374;-41
2022/01/30 14:26:17;;;;;;;;;;;22.60;41.10;;;;;;6281819;27;20185;-41
2022/01/30 14:29:20;;;;;;;;;;;22.30;40.90;;;;;;6275728;28;20015;-41
2022/01/30 14:32:22;;;;;;;;;;;22.20;40.90;;;;;;6304452;28;20065;-41
2022/01/30 14:35:23;;;;;;;;;;;22.30;41.00;;;;;;6296026;28;20435;-42
2022/01/30 14:38:25;;;;;;;;;;;22.30;41.00;;;;;;6300993;28;19959;-41
2022/01/30 14:41:27;;;;;;;;;;;22.80;41.10;;;;;;6282099;28;19938;-43
2022/01/30 14:44:29;;;;;;;;;;;22.50;41.00;;;;;;6309157;28;19984;-41
2022/01/30 14:47:30;;;;;;;;;;;22.50;41.00;;;;;;6283079;28;20450;-41
2022/01/30 14:50:32;;;;;;;;;;;22.30;40.80;;;;;;6299227;28;20346;-41
2022/01/30 14:53:34;;;;;;;;;;;22.40;40.80;;;;;;6302719;28;19938;-41
2022/01/30 14:56:35;;;;;;;;;;;22.30;40.80;;;;;;6298355;28;20220;-41
2022/01/30 14:59:37;;;;;;;;;;;22.20;40.80;;;;;;6291758;28;20678;-41
2022/01/30 15:02:38;;;;;;;;;;;22.50;40.90;;;;;;6292315;28;20408;-41
2022/01/30 15:05:40;;;;;;;;;;;22.50;40.90;;;;;;6296782;28;19928;-41
2022/01/30 15:08:45;;;;;;;;;;;22.50;40.90;;;;;;6283843;28;20177;-43
2022/01/30 15:11:46;;;;;;;;;;;22.90;41.00;;;;;;6293211;28;20194;-41
2022/01/30 15:14:51;;;;;;;;;;;22.40;40.80;;;;;;6299432;28;20287;-41
2022/01/30 15:17:53;;;;;;;;;;;22.20;40.70;;;;;;6286901;28;19935;-41
2022/01/30 15:20:55;;;;;;;;;;;22.20;40.70;;;;;;6295294;28;20455;-41
2022/01/30 15:23:56;;;;;;;;;;;22.30;40.70;;;;;;6285660;28;20116;-41
2022/01/30 15:26:58;;;;;;;;;;;22.70;41.00;;;;;;6300861;28;20352;-41
2022/01/30 15:30:00;;;;;;;;;;;22.20;40.70;;;;;;6296417;28;19933;-41
2022/01/30 15:33:01;;;;;;;;;;;22.60;40.80;;;;;;6292439;28;19932;-41
2022/01/30 15:36:03;;;;;;;;;;;22.50;40.80;;;;;;6299425;27;19935;-40
2022/01/30 15:39:04;;;;;;;;;;;22.70;40.90;;;;;;6296530;28;20484;-41
2022/01/30 15:42:06;;;;;;;;;;;22.70;40.80;;;;;;6298765;28;20042;-41
2022/01/30 15:51:41;;;;;;;;;;;22.30;40.50;;;;;;6294020;28;19931;-41
2022/01/30 15:54:43;;;;;;;;;;;22.30;40.50;;;;;;6293383;28;20393;-41
2022/01/30 15:57:44;;;;;;;;;;;22.40;40.70;;;;;;6289479;28;19938;-41
2022/01/30 16:00:46;;;;;;;;;;;22.80;40.90;;;;;;6292301;28;19932;-42
2022/01/30 16:03:47;;;;;;;;;;;22.40;40.60;;;;;;6292594;28;20224;-41
2022/01/30 16:06:51;;;;;;;;;;;22.30;40.50;;;;;;6289579;28;20336;-41
2022/01/30 16:09:55;;;;;;;;;;;22.40;40.60;;;;;;6293212;28;19938;-41
2022/01/30 16:16:13;;;;;;;;;;;22.80;40.80;;;;;;6278944;28;20054;-41
2022/01/30 16:19:15;;;;;;;;;;;22.20;40.40;;;;;;6277332;28;19935;-41
2022/01/30 16:22:16;;;;;;;;;;;22.20;40.30;;;;;;6291043;28;20465;-41
2022/01/30 16:25:22;;;;;;;;;;;22.40;40.50;;;;;;6301684;27;20187;-41
2022/01/30 16:28:24;;;;;;;;;;;22.60;40.70;;;;;;6290610;28;20364;-41
2022/01/30 16:31:26;;;;;;;;;;;22.50;40.60;;;;;;6291889;28;20443;-41
2022/01/30 16:34:28;;;;;;;;;;;22.60;40.60;;;;;;6295914;28;20381;-41
2022/01/30 16:37:29;;;;;;;;;;;22.20;40.40;;;;;;6291201;28;20373;-41
2022/01/30 16:40:31;;;;;;;;;;;22.60;40.50;;;;;;6292706;28;19943;-42
2022/01/30 16:43:44;;;;;;;;;;;22.80;40.60;;;;;;6284448;28;20076;-40
2022/01/30 16:50:02;;;;;;;;;;;22.70;40.60;;;;;;6279417;28;20178;-42
2022/01/30 16:53:04;;;;;;;;;;;22.30;40.30;;;;;;6291838;28;20096;-41
2022/01/30 16:56:05;;;;;;;;;;;22.20;40.40;;;;;;6297879;28;20297;-41
2022/01/30 16:59:06;;;;;;;;;;;22.40;40.40;;;;;;6299128;28;20756;-41
2022/01/30 17:02:09;;;;;;;;;;;22.50;40.50;;;;;;6304246;28;19971;-41
2022/01/30 17:05:11;;;;;;;;;;;22.40;40.50;;;;;;6309733;28;19975;-41
2022/01/30 17:08:18;;;;;;;;;;;22.30;40.40;;;;;;6308672;28;19931;-41
2022/01/30 17:11:20;;;;;;;;;;;22.30;40.30;;;;;;6289789;28;20537;-41
2022/01/30 17:14:22;;;;;;;;;;;22.50;40.40;;;;;;6288036;28;19931;-40
2022/01/30 17:17:23;;;;;;;;;;;22.40;40.40;;;;;;6291913;28;20161;-41
2022/01/30 17:20:25;;;;;;;;;;;22.40;40.40;;;;;;6293289;28;19997;-41
2022/01/30 17:23:46;;;;;;;;;;;22.30;40.40;;;;;;6305348;28;19931;-41
2022/01/30 17:26:47;;;;;;;;;;;22.90;40.70;;;;;;6304009;28;19938;-42
2022/01/30 17:29:49;;;;;;;;;;;22.50;40.50;;;;;;6304605;28;19928;-41
2022/01/30 17:32:51;;;;;;;;;;;22.20;40.60;;;;;;6303693;28;19936;-44
2022/01/30 17:35:54;;;;;;;;;;;22.00;40.40;;;;;;6302279;28;20851;-41
2022/01/30 17:38:55;;;;;;;;;;;22.20;40.60;;;;;;6303113;28;20085;-41
2022/01/30 17:41:57;;;;;;;;;;;22.10;40.70;;;;;;6291159;28;20043;-42
2022/01/30 17:44:58;;;;;;;;;;;22.20;40.70;;;;;;6300179;28;19963;-41
2022/01/30 17:48:00;;;;;;;;;;;22.40;40.90;;;;;;6285145;28;20759;-42
2022/01/30 17:51:02;;;;;;;;;;;22.00;40.70;;;;;;6299235;28;20764;-43
2022/01/30 17:54:07;;;;;;;;;;;22.20;40.80;;;;;;6294754;28;19931;-41
2022/01/30 17:57:08;;;;;;;;;;;22.10;40.90;;;;;;6306138;28;20014;-41
2022/01/30 18:00:11;;;;;;;;;;;21.90;40.70;;;;;;6301051;28;20846;-40
2022/01/30 18:03:16;;;;;;;;;;;22.10;40.60;;;;;;6283756;28;20863;-41
2022/01/30 18:06:18;;;;;;;;;;;22.20;40.80;;;;;;6303944;28;19931;-41
2022/01/30 18:09:20;;;;;;;;;;;21.90;40.70;;;;;;6304505;28;21620;-41
2022/01/30 18:12:21;;;;;;;;;;;22.30;41.00;;;;;;6304967;28;19936;-41
2022/01/30 18:15:23;;;;;;;;;;;22.30;40.80;;;;;;6305826;28;20046;-41
2022/01/30 18:18:25;;;;;;;;;;;22.40;41.10;;;;;;6303699;28;19928;-41
2022/01/30 18:21:26;;;;;;;;;;;21.80;40.80;;;;;;6304204;28;19932;-41
2022/01/30 18:24:27;;;;;;;;;;;22.10;41.20;;;;;;6290467;28;20470;-41
2022/01/30 18:27:29;;;;;;;;;;;21.60;41.00;;;;;;6279880;28;19931;-42
2022/01/30 18:30:31;;;;;;;;;;;21.90;41.20;;;;;;6304413;28;19931;-41
2022/01/30 18:33:34;;;;;;;;;;;21.70;41.20;;;;;;6303469;28;20054;-41
2022/01/30 18:36:37;;;;;;;;;;;21.80;41.20;;;;;;6301590;28;20847;-41
2022/01/30 18:39:54;;;;;;;;;;;21.50;41.00;;;;;;6304549;28;19924;-41
2022/01/30 18:42:55;;;;;;;;;;;21.40;41.00;;;;;;6305451;28;20764;-41
2022/01/30 18:45:56;;;;;;;;;;;22.00;41.60;;;;;;6302047;28;19931;-41
2022/01/30 18:48:58;;;;;;;;;;;21.70;41.40;;;;;;6302491;28;19929;-41